createdAt,value
2019-05-07T00:00:49.823Z,2.00
2019-05-07T00:01:52.495Z,2.00
2019-05-07T00:02:49.825Z,2.30
2019-05-07T00:03:49.800Z,1.60
2019-05-07T00:04:49.781Z,2.10
2019-05-07T00:05:53.717Z,1.70
2019-05-07T00:06:49.758Z,2.30
2019-05-07T00:07:51.616Z,2.10
2019-05-07T00:08:52.147Z,2.10
2019-05-07T00:09:49.725Z,1.70
2019-05-07T00:10:49.713Z,2.30
2019-05-07T00:11:49.702Z,2.00
2019-05-07T00:12:51.501Z,2.10
2019-05-07T00:13:52.084Z,2.00
2019-05-07T00:14:59.049Z,2.00
2019-05-07T00:15:52.654Z,2.10
2019-05-07T00:16:49.651Z,2.10
2019-05-07T00:17:49.640Z,2.20
2019-05-07T00:18:49.653Z,2.50
2019-05-07T00:19:49.620Z,2.40
2019-05-07T00:20:49.605Z,1.90
2019-05-07T00:21:49.595Z,2.20
2019-05-07T00:22:49.588Z,2.40
2019-05-07T00:23:49.572Z,2.30
2019-05-07T00:24:49.581Z,2.20
2019-05-07T00:25:49.550Z,2.50
2019-05-07T00:26:49.539Z,2.20
2019-05-07T00:27:49.525Z,2.50
2019-05-07T00:28:49.521Z,2.50
2019-05-07T00:29:51.931Z,2.50
2019-05-07T00:30:49.495Z,2.00
2019-05-07T00:31:51.905Z,2.50
2019-05-07T00:32:49.472Z,2.70
2019-05-07T00:33:49.470Z,2.50
2019-05-07T00:34:49.460Z,2.70
2019-05-07T00:35:49.447Z,2.10
2019-05-07T00:36:49.429Z,2.70
2019-05-07T00:37:49.424Z,2.50
2019-05-07T00:38:49.406Z,2.60
2019-05-07T00:39:49.405Z,2.60
2019-05-07T00:40:49.385Z,2.50
2019-05-07T00:41:49.373Z,2.70
2019-05-07T00:42:49.364Z,2.20
2019-05-07T00:43:49.351Z,2.30
2019-05-07T00:44:49.349Z,2.40
2019-05-07T00:45:49.331Z,2.40
2019-05-07T00:46:49.321Z,2.40
2019-05-07T00:47:49.309Z,2.50
2019-05-07T00:48:49.301Z,2.70
2019-05-07T00:49:49.293Z,2.80
2019-05-07T00:50:49.274Z,2.40
2019-05-07T00:51:49.264Z,2.50
2019-05-07T00:52:49.255Z,2.50
2019-05-07T00:53:49.249Z,2.30
2019-05-07T00:54:49.242Z,2.70
2019-05-07T00:55:49.226Z,2.60
2019-05-07T00:56:49.209Z,2.60
2019-05-07T00:57:49.201Z,2.70
2019-05-07T00:58:49.187Z,3.00
2019-05-07T00:59:49.185Z,3.00
2019-05-07T01:00:49.165Z,2.50
2019-05-07T01:01:49.155Z,3.00
2019-05-07T01:02:49.145Z,2.70
2019-05-07T01:03:49.132Z,2.90
2019-05-07T01:04:49.179Z,2.80
2019-05-07T01:05:49.113Z,2.90
2019-05-07T01:06:49.100Z,2.90
2019-05-07T01:07:49.088Z,2.70
2019-05-07T01:08:49.077Z,3.00
2019-05-07T01:09:49.066Z,2.70
2019-05-07T01:10:49.072Z,3.00
2019-05-07T01:11:49.061Z,3.40
2019-05-07T01:12:49.036Z,3.50
2019-05-07T01:13:49.023Z,3.10
2019-05-07T01:14:49.014Z,3.10
2019-05-07T01:15:49.012Z,3.40
2019-05-07T01:16:48.997Z,2.70
2019-05-07T01:17:48.982Z,3.10
2019-05-07T01:18:48.969Z,2.80
2019-05-07T01:19:48.959Z,2.80
2019-05-07T01:20:48.959Z,3.00
2019-05-07T01:21:48.944Z,2.80
2019-05-07T01:22:48.926Z,3.20
2019-05-07T01:23:48.913Z,2.70
2019-05-07T01:24:48.909Z,2.90
2019-05-07T01:25:48.903Z,2.70
2019-05-07T01:26:48.881Z,3.10
2019-05-07T01:27:48.870Z,2.40
2019-05-07T01:28:48.866Z,3.00
2019-05-07T01:29:48.850Z,2.70
2019-05-07T01:30:48.845Z,2.70
2019-05-07T01:31:48.827Z,2.40
2019-05-07T01:32:48.815Z,3.10
2019-05-07T01:33:48.805Z,3.30
2019-05-07T01:34:48.799Z,3.10
2019-05-07T01:35:48.793Z,3.10
2019-05-07T01:36:48.772Z,2.80
2019-05-07T01:37:48.762Z,2.80
2019-05-07T01:38:48.751Z,2.70
2019-05-07T01:39:48.747Z,2.70
2019-05-07T01:40:48.739Z,2.70
2019-05-07T01:41:48.717Z,3.10
2019-05-07T01:42:48.711Z,3.10
2019-05-07T01:43:48.695Z,3.00
2019-05-07T01:44:48.684Z,3.10
2019-05-07T01:45:49.937Z,3.30
2019-05-07T01:46:48.667Z,3.20
2019-05-07T01:47:48.653Z,3.20
2019-05-07T01:48:48.643Z,3.00
2019-05-07T01:49:48.632Z,3.10
2019-05-07T01:50:48.621Z,2.80
2019-05-07T01:51:48.623Z,3.50
2019-05-07T01:52:48.603Z,3.60
2019-05-07T01:53:48.587Z,3.20
2019-05-07T01:54:48.580Z,3.20
2019-05-07T01:55:48.565Z,3.00
2019-05-07T01:56:48.565Z,3.10
2019-05-07T01:57:48.543Z,3.20
2019-05-07T01:58:48.536Z,3.10
2019-05-07T01:59:48.520Z,3.40
2019-05-07T02:00:48.509Z,3.30
2019-05-07T02:01:48.516Z,3.20
2019-05-07T02:02:48.495Z,3.00
2019-05-07T02:03:48.479Z,3.20
2019-05-07T02:04:48.468Z,2.80
2019-05-07T02:05:48.454Z,3.00
2019-05-07T02:06:48.455Z,3.00
2019-05-07T02:07:48.434Z,3.20
2019-05-07T02:08:48.423Z,2.90
2019-05-07T02:09:48.412Z,2.80
2019-05-07T02:10:48.400Z,2.80
2019-05-07T02:11:48.400Z,3.60
2019-05-07T02:12:48.379Z,2.90
2019-05-07T02:13:48.369Z,3.10
2019-05-07T02:14:48.364Z,2.70
2019-05-07T02:15:58.562Z,3.10
2019-05-07T02:16:49.341Z,2.90
2019-05-07T02:17:48.331Z,3.00
2019-05-07T02:18:48.313Z,2.60
2019-05-07T02:19:48.302Z,3.10
2019-05-07T02:20:48.294Z,2.90
2019-05-07T02:21:48.290Z,2.70
2019-05-07T02:22:48.274Z,3.20
2019-05-07T02:23:48.259Z,3.00
2019-05-07T02:24:48.269Z,3.20
2019-05-07T02:25:48.243Z,2.90
2019-05-07T02:26:48.236Z,2.90
2019-05-07T02:27:48.214Z,2.90
2019-05-07T02:28:48.207Z,3.10
2019-05-07T02:29:48.195Z,2.80
2019-05-07T02:30:48.183Z,3.30
2019-05-07T02:31:48.180Z,3.10
2019-05-07T02:32:48.165Z,2.70
2019-05-07T02:33:48.154Z,2.70
2019-05-07T02:34:48.138Z,2.90
2019-05-07T02:35:48.127Z,3.00
2019-05-07T02:36:48.126Z,2.80
2019-05-07T02:37:52.275Z,2.80
2019-05-07T02:38:49.094Z,3.00
2019-05-07T02:39:48.083Z,2.90
2019-05-07T02:40:48.072Z,3.00
2019-05-07T02:41:48.081Z,3.10
2019-05-07T02:42:48.050Z,2.90
2019-05-07T02:43:48.042Z,2.90
2019-05-07T02:44:48.029Z,2.70
2019-05-07T02:45:48.023Z,3.20
2019-05-07T02:46:48.025Z,3.00
2019-05-07T02:47:47.997Z,2.80
2019-05-07T02:48:47.985Z,3.20
2019-05-07T02:49:47.977Z,3.00
2019-05-07T02:50:47.965Z,3.10
2019-05-07T02:51:47.982Z,3.30
2019-05-07T02:52:47.946Z,3.10
2019-05-07T02:53:47.932Z,3.10
2019-05-07T02:54:47.927Z,3.40
2019-05-07T02:55:47.907Z,3.00
2019-05-07T02:56:47.899Z,3.10
2019-05-07T02:57:47.894Z,3.00
2019-05-07T02:58:47.879Z,3.20
2019-05-07T02:59:47.862Z,2.90
2019-05-07T03:00:47.857Z,3.50
2019-05-07T03:01:47.844Z,3.20
2019-05-07T03:02:47.853Z,3.80
2019-05-07T03:03:47.821Z,3.80
2019-05-07T03:04:47.809Z,3.50
2019-05-07T03:05:47.801Z,3.50
2019-05-07T03:06:47.793Z,3.60
2019-05-07T03:07:47.786Z,3.80
2019-05-07T03:08:47.765Z,3.30
2019-05-07T03:09:47.756Z,3.70
2019-05-07T03:10:47.755Z,3.20
2019-05-07T03:11:47.753Z,3.60
2019-05-07T03:12:47.735Z,3.20
2019-05-07T03:13:47.731Z,3.50
2019-05-07T03:14:47.700Z,3.30
2019-05-07T03:15:47.689Z,3.20
2019-05-07T03:16:49.508Z,3.30
2019-05-07T03:17:47.676Z,3.70
2019-05-07T03:18:47.656Z,3.70
2019-05-07T03:19:47.655Z,3.80
2019-05-07T03:20:47.638Z,3.70
2019-05-07T03:21:47.625Z,3.90
2019-05-07T03:22:47.639Z,3.70
2019-05-07T03:23:47.603Z,3.70
2019-05-07T03:24:47.591Z,3.80
2019-05-07T03:25:47.578Z,3.90
2019-05-07T03:26:47.576Z,3.90
2019-05-07T03:27:47.567Z,3.90
2019-05-07T03:28:47.550Z,3.80
2019-05-07T03:29:47.537Z,3.50
2019-05-07T03:30:47.545Z,4.00
2019-05-07T03:31:47.795Z,4.00
2019-05-07T03:32:48.216Z,4.00
2019-05-07T03:33:47.993Z,4.40
2019-05-07T03:34:47.616Z,3.70
2019-05-07T03:35:47.557Z,4.20
2019-05-07T03:36:49.036Z,4.10
2019-05-07T03:37:47.462Z,4.30
2019-05-07T03:38:47.438Z,4.30
2019-05-07T03:39:47.426Z,3.90
2019-05-07T03:40:47.418Z,4.10
2019-05-07T03:41:47.404Z,3.80
2019-05-07T03:42:47.439Z,3.80
2019-05-07T03:43:47.383Z,4.20
2019-05-07T03:44:47.371Z,4.70
2019-05-07T03:45:47.361Z,4.50
2019-05-07T03:46:58.177Z,4.50
2019-05-07T03:47:48.640Z,4.50
2019-05-07T03:48:47.344Z,4.30
2019-05-07T03:49:47.324Z,4.60
2019-05-07T03:50:47.309Z,3.90
2019-05-07T03:51:47.298Z,4.60
2019-05-07T03:52:47.286Z,3.80
2019-05-07T03:53:47.291Z,3.80
2019-05-07T03:54:47.262Z,4.50
2019-05-07T03:55:47.256Z,4.20
2019-05-07T03:56:47.240Z,4.70
2019-05-07T03:57:47.230Z,4.40
2019-05-07T03:58:47.228Z,4.40
2019-05-07T03:59:47.211Z,4.00
2019-05-07T04:00:47.197Z,4.20
2019-05-07T04:01:47.185Z,4.10
2019-05-07T04:02:47.174Z,4.30
2019-05-07T04:03:47.175Z,4.50
2019-05-07T04:04:47.160Z,3.70
2019-05-07T04:05:47.142Z,4.40
2019-05-07T04:06:47.129Z,3.90
2019-05-07T04:07:47.119Z,3.80
2019-05-07T04:08:47.122Z,4.30
2019-05-07T04:09:47.100Z,4.60
2019-05-07T04:10:47.089Z,4.70
2019-05-07T04:11:47.078Z,4.60
2019-05-07T04:12:47.066Z,4.40
2019-05-07T04:13:47.068Z,4.40
2019-05-07T04:14:47.044Z,4.20
2019-05-07T04:15:47.036Z,4.10
2019-05-07T04:16:47.034Z,4.40
2019-05-07T04:17:47.011Z,4.30
2019-05-07T04:18:47.022Z,4.20
2019-05-07T04:19:46.987Z,4.10
2019-05-07T04:20:46.977Z,4.50
2019-05-07T04:21:46.971Z,4.40
2019-05-07T04:22:46.957Z,4.40
2019-05-07T04:23:46.957Z,4.70
2019-05-07T04:24:46.934Z,4.90
2019-05-07T04:25:46.931Z,4.50
2019-05-07T04:26:46.913Z,4.40
2019-05-07T04:27:47.276Z,4.30
2019-05-07T04:28:47.080Z,4.00
2019-05-07T04:29:46.894Z,3.90
2019-05-07T04:30:46.866Z,4.60
2019-05-07T04:31:46.858Z,4.20
2019-05-07T04:32:46.850Z,4.20
2019-05-07T04:33:46.834Z,4.30
2019-05-07T04:34:46.833Z,4.90
2019-05-07T04:35:46.812Z,4.40
2019-05-07T04:36:46.802Z,4.70
2019-05-07T04:37:46.799Z,4.60
2019-05-07T04:38:46.780Z,4.20
2019-05-07T04:39:46.784Z,4.70
2019-05-07T04:40:46.762Z,4.50
2019-05-07T04:41:46.758Z,4.70
2019-05-07T04:42:46.735Z,4.50
2019-05-07T04:43:46.725Z,4.60
2019-05-07T04:44:46.724Z,4.30
2019-05-07T04:45:46.704Z,4.40
2019-05-07T04:46:48.150Z,4.80
2019-05-07T04:47:47.911Z,5.00
2019-05-07T04:48:46.671Z,5.40
2019-05-07T04:49:46.668Z,4.10
2019-05-07T04:50:47.869Z,4.50
2019-05-07T04:51:46.653Z,5.10
2019-05-07T04:52:46.627Z,5.10
2019-05-07T04:53:46.616Z,4.70
2019-05-07T04:54:46.617Z,4.50
2019-05-07T04:55:46.594Z,4.30
2019-05-07T04:56:46.590Z,4.60
2019-05-07T04:57:46.571Z,4.60
2019-05-07T04:58:46.561Z,4.60
2019-05-07T04:59:46.584Z,4.50
2019-05-07T05:00:46.541Z,4.20
2019-05-07T05:01:46.527Z,4.80
2019-05-07T05:02:46.516Z,4.30
2019-05-07T05:03:46.506Z,4.50
2019-05-07T05:04:46.507Z,4.80
2019-05-07T05:05:46.483Z,4.50
2019-05-07T05:06:46.472Z,4.40
2019-05-07T05:07:46.476Z,4.60
2019-05-07T05:08:46.519Z,4.70
2019-05-07T05:09:46.449Z,4.90
2019-05-07T05:10:46.443Z,4.20
2019-05-07T05:11:46.423Z,4.90
2019-05-07T05:12:46.414Z,4.20
2019-05-07T05:13:46.400Z,4.00
2019-05-07T05:14:46.417Z,4.30
2019-05-07T05:15:46.375Z,4.10
2019-05-07T05:16:46.363Z,4.70
2019-05-07T05:17:50.676Z,4.50
2019-05-07T05:18:47.342Z,3.70
2019-05-07T05:19:46.331Z,4.00
2019-05-07T05:20:46.328Z,4.50
2019-05-07T05:21:46.309Z,4.20
2019-05-07T05:22:46.300Z,3.90
2019-05-07T05:23:46.292Z,4.00
2019-05-07T05:24:46.281Z,4.20
2019-05-07T05:25:46.279Z,4.00
2019-05-07T05:26:46.254Z,4.20
2019-05-07T05:27:46.242Z,3.90
2019-05-07T05:28:46.235Z,4.00
2019-05-07T05:29:46.223Z,3.70
2019-05-07T05:30:46.221Z,4.20
2019-05-07T05:31:46.198Z,3.90
2019-05-07T05:32:46.215Z,4.00
2019-05-07T05:33:46.221Z,4.40
2019-05-07T05:34:46.166Z,4.30
2019-05-07T05:35:46.166Z,4.40
2019-05-07T05:36:46.148Z,4.50
2019-05-07T05:37:46.134Z,4.00
2019-05-07T05:38:46.123Z,4.40
2019-05-07T05:39:46.112Z,4.40
2019-05-07T05:40:46.125Z,3.80
2019-05-07T05:41:46.116Z,3.70
2019-05-07T05:42:46.079Z,3.80
2019-05-07T05:43:46.067Z,3.30
2019-05-07T05:44:46.107Z,3.40
2019-05-07T05:45:46.045Z,3.50
2019-05-07T05:46:46.048Z,3.50
2019-05-07T05:47:46.027Z,3.40
2019-05-07T05:48:46.013Z,3.40
2019-05-07T05:49:46.026Z,3.20
2019-05-07T05:50:45.991Z,3.60
2019-05-07T05:51:45.992Z,3.50
2019-05-07T05:52:45.971Z,3.50
2019-05-07T05:53:45.961Z,3.60
2019-05-07T05:54:45.949Z,3.00
2019-05-07T05:55:45.935Z,3.30
2019-05-07T05:56:45.936Z,3.90
2019-05-07T05:57:45.914Z,3.40
2019-05-07T05:58:45.906Z,3.70
2019-05-07T05:59:51.254Z,3.60
2019-05-07T06:00:46.880Z,3.30
2019-05-07T06:01:45.885Z,3.40
2019-05-07T06:02:45.859Z,3.40
2019-05-07T06:03:45.851Z,3.30
2019-05-07T06:04:45.841Z,3.30
2019-05-07T06:05:45.826Z,3.50
2019-05-07T06:06:45.825Z,3.20
2019-05-07T06:07:45.807Z,3.60
2019-05-07T06:08:45.794Z,3.50
2019-05-07T06:09:45.789Z,3.10
2019-05-07T06:10:45.781Z,3.30
2019-05-07T06:11:45.823Z,3.50
2019-05-07T06:12:45.749Z,3.60
2019-05-07T06:13:45.739Z,3.00
2019-05-07T06:14:45.728Z,2.70
2019-05-07T06:15:45.719Z,3.20
2019-05-07T06:16:45.711Z,3.00
2019-05-07T06:17:45.704Z,3.60
2019-05-07T06:18:45.683Z,3.00
2019-05-07T06:19:45.676Z,3.40
2019-05-07T06:20:45.669Z,3.00
2019-05-07T06:21:45.652Z,3.70
2019-05-07T06:22:45.651Z,2.90
2019-05-07T06:23:45.630Z,3.30
2019-05-07T06:24:45.619Z,3.30
2019-05-07T06:25:45.609Z,3.50
2019-05-07T06:26:45.600Z,3.30
2019-05-07T06:27:45.626Z,2.80
2019-05-07T06:28:45.573Z,2.80
2019-05-07T06:29:45.563Z,2.70
2019-05-07T06:30:45.554Z,3.10
2019-05-07T06:31:45.544Z,2.90
2019-05-07T06:32:45.532Z,2.60
2019-05-07T06:33:45.559Z,3.00
2019-05-07T06:34:45.510Z,2.80
2019-05-07T06:35:45.500Z,2.80
2019-05-07T06:36:45.498Z,2.80
2019-05-07T06:37:45.476Z,2.80
2019-05-07T06:38:45.474Z,2.70
2019-05-07T06:39:45.458Z,2.60
2019-05-07T06:40:45.444Z,2.20
2019-05-07T06:41:45.432Z,3.20
2019-05-07T06:42:45.422Z,2.60
2019-05-07T06:43:45.426Z,2.60
2019-05-07T06:44:45.401Z,2.80
2019-05-07T06:45:45.392Z,2.70
2019-05-07T06:46:45.376Z,2.40
2019-05-07T06:47:45.369Z,2.70
2019-05-07T06:48:46.198Z,2.30
2019-05-07T06:49:45.346Z,2.20
2019-05-07T06:50:45.335Z,2.80
2019-05-07T06:51:47.764Z,2.70
2019-05-07T06:52:45.311Z,2.80
2019-05-07T06:53:45.301Z,2.50
2019-05-07T06:54:45.302Z,2.40
2019-05-07T06:55:45.288Z,2.30
2019-05-07T06:56:45.270Z,1.90
2019-05-07T06:57:45.258Z,1.90
2019-05-07T06:58:45.245Z,2.70
2019-05-07T06:59:45.247Z,2.40
2019-05-07T07:00:45.223Z,2.80
2019-05-07T07:01:45.213Z,2.70
2019-05-07T07:02:45.201Z,2.80
2019-05-07T07:03:45.190Z,2.30
2019-05-07T07:04:45.188Z,2.10
2019-05-07T07:05:45.181Z,2.00
2019-05-07T07:06:45.158Z,2.10
2019-05-07T07:07:45.149Z,1.80
2019-05-07T07:08:45.137Z,1.80
2019-05-07T07:09:45.164Z,2.40
2019-05-07T07:10:45.114Z,2.10
2019-05-07T07:11:45.135Z,1.80
2019-05-07T07:12:45.097Z,1.90
2019-05-07T07:13:45.083Z,1.60
2019-05-07T07:14:45.084Z,1.50
2019-05-07T07:15:45.069Z,1.30
2019-05-07T07:16:45.049Z,1.60
2019-05-07T07:17:45.040Z,1.60
2019-05-07T07:18:52.006Z,1.50
2019-05-07T07:19:46.033Z,1.50
2019-05-07T07:20:45.005Z,1.30
2019-05-07T07:21:44.998Z,1.40
2019-05-07T07:22:44.981Z,1.40
2019-05-07T07:23:44.971Z,1.70
2019-05-07T07:24:44.991Z,1.80
2019-05-07T07:25:44.950Z,1.40
2019-05-07T07:26:44.939Z,1.40
2019-05-07T07:27:44.929Z,1.40
2019-05-07T07:28:44.918Z,1.30
2019-05-07T07:29:45.087Z,1.60
2019-05-07T07:30:44.905Z,1.20
2019-05-07T07:31:44.887Z,1.20
2019-05-07T07:32:44.871Z,1.20
2019-05-07T07:33:44.858Z,1.40
2019-05-07T07:34:44.849Z,1.60
2019-05-07T07:35:44.850Z,1.50
2019-05-07T07:36:44.828Z,1.50
2019-05-07T07:37:44.821Z,1.40
2019-05-07T07:38:44.808Z,1.20
2019-05-07T07:39:44.799Z,1.30
2019-05-07T07:40:44.793Z,1.30
2019-05-07T07:41:44.772Z,1.30
2019-05-07T07:42:44.765Z,1.10
2019-05-07T07:43:44.751Z,1.30
2019-05-07T07:44:44.740Z,1.60
2019-05-07T07:45:44.738Z,1.40
2019-05-07T07:46:44.722Z,1.30
2019-05-07T07:47:44.712Z,1.30
2019-05-07T07:48:44.702Z,1.60
2019-05-07T07:49:44.686Z,1.10
2019-05-07T07:50:44.684Z,1.40
2019-05-07T07:51:45.623Z,1.20
2019-05-07T07:52:44.651Z,1.60
2019-05-07T07:53:44.662Z,1.10
2019-05-07T07:54:44.641Z,1.40
2019-05-07T07:55:45.171Z,1.00
2019-05-07T07:56:52.645Z,1.00
2019-05-07T07:57:45.596Z,1.10
2019-05-07T07:58:44.585Z,1.40
2019-05-07T07:59:44.616Z,1.50
2019-05-07T08:00:44.595Z,1.50
2019-05-07T08:01:44.553Z,1.10
2019-05-07T08:02:44.544Z,1.40
2019-05-07T08:03:44.532Z,1.20
2019-05-07T08:04:44.521Z,1.00
2019-05-07T08:05:44.508Z,1.00
2019-05-07T08:06:44.506Z,1.10
2019-05-07T08:07:44.487Z,1.20
2019-05-07T08:08:44.480Z,1.30
2019-05-07T08:09:44.465Z,0.90
2019-05-07T08:10:44.455Z,1.10
2019-05-07T08:11:44.453Z,1.10
2019-05-07T08:12:44.435Z,1.20
2019-05-07T08:13:44.421Z,0.90
2019-05-07T08:14:44.412Z,1.60
2019-05-07T08:15:44.401Z,1.50
2019-05-07T08:16:44.398Z,1.30
2019-05-07T08:17:44.379Z,1.20
2019-05-07T08:18:44.366Z,1.40
2019-05-07T08:19:44.355Z,1.00
2019-05-07T08:20:44.343Z,1.20
2019-05-07T08:21:44.343Z,1.00
2019-05-07T08:22:44.323Z,1.10
2019-05-07T08:23:44.311Z,1.30
2019-05-07T08:24:44.300Z,1.40
2019-05-07T08:25:44.288Z,1.30
2019-05-07T08:26:44.332Z,1.20
2019-05-07T08:27:44.266Z,1.10
2019-05-07T08:28:44.255Z,0.90
2019-05-07T08:29:44.246Z,1.10
2019-05-07T08:30:44.234Z,1.10
2019-05-07T08:31:44.222Z,1.20
2019-05-07T08:32:44.219Z,1.10
2019-05-07T08:33:44.200Z,1.10
2019-05-07T08:34:44.194Z,0.80
2019-05-07T08:35:44.178Z,1.00
2019-05-07T08:36:44.166Z,0.90
2019-05-07T08:37:44.170Z,0.70
2019-05-07T08:38:44.158Z,1.00
2019-05-07T08:39:44.134Z,1.10
2019-05-07T08:40:44.125Z,1.00
2019-05-07T08:41:44.114Z,0.90
2019-05-07T08:42:44.154Z,1.00
2019-05-07T08:43:44.096Z,1.00
2019-05-07T08:44:44.082Z,0.90
2019-05-07T08:45:44.684Z,0.80
2019-05-07T08:46:44.069Z,0.50
2019-05-07T08:47:44.055Z,0.90
2019-05-07T08:48:44.040Z,1.10
2019-05-07T08:49:44.102Z,1.00
2019-05-07T08:50:44.018Z,0.90
2019-05-07T08:51:44.002Z,2.00
2019-05-07T08:52:44.010Z,0.80
2019-05-07T08:53:43.985Z,0.80
2019-05-07T08:54:44.028Z,0.90
2019-05-07T08:55:43.972Z,1.10
2019-05-07T08:56:43.956Z,1.00
2019-05-07T08:57:45.893Z,1.00
2019-05-07T08:58:43.925Z,0.60
2019-05-07T08:59:57.407Z,0.90
2019-05-07T09:00:44.912Z,1.20
2019-05-07T09:01:43.897Z,1.00
2019-05-07T09:02:43.894Z,0.90
2019-05-07T09:03:43.872Z,1.10
2019-05-07T09:04:43.861Z,1.00
2019-05-07T09:05:43.847Z,1.20
2019-05-07T09:06:43.837Z,1.00
2019-05-07T09:07:43.834Z,1.40
2019-05-07T09:08:43.847Z,1.00
2019-05-07T09:09:43.842Z,1.50
2019-05-07T09:10:43.795Z,1.30
2019-05-07T09:11:43.782Z,1.00
2019-05-07T09:12:43.829Z,1.40
2019-05-07T09:13:43.764Z,1.20
2019-05-07T09:14:43.752Z,1.00
2019-05-07T09:15:43.738Z,1.20
2019-05-07T09:16:43.729Z,1.10
2019-05-07T09:17:43.716Z,1.20
2019-05-07T09:18:43.714Z,1.10
2019-05-07T09:19:50.603Z,1.10
2019-05-07T09:20:44.682Z,1.10
2019-05-07T09:21:43.675Z,1.10
2019-05-07T09:22:43.660Z,1.00
2019-05-07T09:23:43.670Z,1.20
2019-05-07T09:24:43.652Z,1.00
2019-05-07T09:25:43.677Z,1.50
2019-05-07T09:26:43.618Z,0.90
2019-05-07T09:27:43.606Z,0.90
2019-05-07T09:28:43.611Z,0.90
2019-05-07T09:29:43.583Z,1.30
2019-05-07T09:30:43.574Z,1.10
2019-05-07T09:31:43.562Z,0.60
2019-05-07T09:32:43.554Z,1.10
2019-05-07T09:33:43.549Z,2.20
2019-05-07T09:34:43.530Z,1.20
2019-05-07T09:35:43.520Z,0.90
2019-05-07T09:36:43.510Z,1.00
2019-05-07T09:37:43.498Z,1.10
2019-05-07T09:38:56.101Z,10.50
2019-05-07T09:39:44.473Z,10.00
2019-05-07T09:40:43.466Z,9.60
2019-05-07T09:41:43.461Z,1.40
2019-05-07T09:42:43.527Z,1.10
2019-05-07T09:43:43.446Z,0.90
2019-05-07T09:44:43.422Z,1.30
2019-05-07T09:45:43.428Z,1.40
2019-05-07T09:46:46.574Z,1.10
2019-05-07T09:47:43.390Z,1.10
2019-05-07T09:48:43.727Z,1.40
2019-05-07T09:49:43.376Z,0.80
2019-05-07T09:50:43.357Z,1.30
2019-05-07T09:51:43.346Z,1.00
2019-05-07T09:52:43.342Z,1.30
2019-05-07T09:53:43.343Z,0.80
2019-05-07T09:54:43.317Z,0.90
2019-05-07T09:55:43.305Z,2.10
2019-05-07T09:56:43.287Z,1.90
2019-05-07T09:57:43.277Z,3.30
2019-05-07T09:58:43.282Z,2.00
2019-05-07T09:59:43.308Z,1.30
2019-05-07T10:00:43.243Z,1.40
2019-05-07T10:01:43.253Z,1.10
2019-05-07T10:02:43.222Z,1.30
2019-05-07T10:03:43.311Z,1.10
2019-05-07T10:04:43.211Z,1.50
2019-05-07T10:05:43.189Z,1.70
2019-05-07T10:06:43.195Z,1.30
2019-05-07T10:07:43.174Z,1.20
2019-05-07T10:08:43.159Z,0.90
2019-05-07T10:09:43.168Z,1.00
2019-05-07T10:10:43.147Z,1.80
2019-05-07T10:11:43.139Z,1.60
2019-05-07T10:12:43.130Z,1.60
2019-05-07T10:13:43.108Z,0.90
2019-05-07T10:14:43.107Z,1.10
2019-05-07T10:15:43.083Z,1.10
2019-05-07T10:16:43.076Z,0.80
2019-05-07T10:17:43.068Z,0.80
2019-05-07T10:18:43.080Z,1.50
2019-05-07T10:19:43.093Z,1.10
2019-05-07T10:20:43.034Z,0.80
2019-05-07T10:21:43.021Z,1.00
2019-05-07T10:22:43.020Z,1.10
2019-05-07T10:23:43.002Z,0.90
2019-05-07T10:24:43.009Z,0.80
2019-05-07T10:25:42.990Z,1.00
2019-05-07T10:26:43.000Z,1.10
2019-05-07T10:27:42.954Z,1.10
2019-05-07T10:28:42.947Z,1.10
2019-05-07T10:29:42.941Z,0.90
2019-05-07T10:30:42.974Z,1.20
2019-05-07T10:31:42.912Z,1.00
2019-05-07T10:32:42.901Z,1.30
2019-05-07T10:33:42.903Z,1.00
2019-05-07T10:34:42.894Z,1.90
2019-05-07T10:35:43.418Z,2.20
2019-05-07T10:36:42.855Z,0.90
2019-05-07T10:37:42.844Z,1.80
2019-05-07T10:38:42.835Z,1.20
2019-05-07T10:39:43.109Z,0.80
2019-05-07T10:40:42.831Z,0.80
2019-05-07T10:41:42.827Z,7.40
2019-05-07T10:42:43.213Z,1.00
2019-05-07T10:43:42.936Z,1.10
2019-05-07T10:44:43.264Z,0.70
2019-05-07T10:45:42.778Z,0.80
2019-05-07T10:46:42.741Z,0.90
2019-05-07T10:47:42.734Z,1.40
2019-05-07T10:48:42.715Z,1.30
2019-05-07T10:49:42.705Z,1.40
2019-05-07T10:50:42.694Z,0.80
2019-05-07T10:51:42.703Z,1.20
2019-05-07T10:52:42.675Z,3.10
2019-05-07T10:53:42.678Z,1.20
2019-05-07T10:54:42.654Z,0.80
2019-05-07T10:55:45.368Z,1.10
2019-05-07T10:56:42.653Z,1.00
2019-05-07T10:57:42.623Z,1.50
2019-05-07T10:58:42.613Z,1.00
2019-05-07T10:59:42.602Z,1.30
2019-05-07T11:00:42.597Z,1.00
2019-05-07T11:01:42.638Z,0.90
2019-05-07T11:02:42.678Z,0.90
2019-05-07T11:03:42.556Z,0.90
2019-05-07T11:04:45.426Z,1.00
2019-05-07T11:05:42.534Z,0.80
2019-05-07T11:06:42.532Z,0.70
2019-05-07T11:07:42.616Z,0.80
2019-05-07T11:08:42.898Z,0.90
2019-05-07T11:09:42.489Z,0.90
2019-05-07T11:10:42.484Z,0.80
2019-05-07T11:11:42.497Z,0.90
2019-05-07T11:12:42.646Z,0.80
2019-05-07T11:13:42.478Z,0.90
2019-05-07T11:14:42.435Z,1.00
2019-05-07T11:15:42.935Z,0.90
2019-05-07T11:16:43.075Z,0.90
2019-05-07T11:17:42.402Z,1.00
2019-05-07T11:18:42.710Z,0.90
2019-05-07T11:19:42.385Z,0.80
2019-05-07T11:20:49.776Z,0.90
2019-05-07T11:21:43.368Z,0.80
2019-05-07T11:22:42.910Z,0.80
2019-05-07T11:23:42.352Z,0.60
2019-05-07T11:24:42.712Z,0.60
2019-05-07T11:25:42.329Z,0.80
2019-05-07T11:26:42.313Z,0.60
2019-05-07T11:27:42.317Z,0.80
2019-05-07T11:28:42.288Z,0.60
2019-05-07T11:29:42.983Z,0.70
2019-05-07T11:30:42.650Z,0.80
2019-05-07T11:31:42.455Z,0.80
2019-05-07T11:32:42.951Z,0.80
2019-05-07T11:33:42.244Z,0.90
2019-05-07T11:34:42.300Z,0.80
2019-05-07T11:35:42.481Z,0.80
2019-05-07T11:36:42.996Z,0.80
2019-05-07T11:37:44.107Z,0.80
2019-05-07T11:38:44.607Z,0.90
2019-05-07T11:39:42.778Z,1.00
2019-05-07T11:40:42.713Z,1.00
2019-05-07T11:41:42.330Z,0.70
2019-05-07T11:42:42.673Z,0.90
2019-05-07T11:43:42.122Z,0.90
2019-05-07T11:44:42.391Z,1.10
2019-05-07T11:45:42.099Z,0.80
2019-05-07T11:46:44.431Z,0.80
2019-05-07T11:47:42.090Z,1.10
2019-05-07T11:48:42.603Z,1.50
2019-05-07T11:49:42.061Z,1.30
2019-05-07T11:50:42.284Z,1.10
2019-05-07T11:51:42.677Z,1.40
2019-05-07T11:52:42.528Z,0.90
2019-05-07T11:53:42.007Z,1.00
2019-05-07T11:54:42.158Z,1.20
2019-05-07T11:55:42.173Z,1.00
2019-05-07T11:56:42.316Z,0.80
2019-05-07T11:57:44.205Z,1.20
2019-05-07T11:58:41.954Z,0.80
2019-05-07T11:59:41.959Z,0.90
2019-05-07T12:00:42.597Z,1.00
2019-05-07T12:01:47.111Z,1.10
2019-05-07T12:02:42.927Z,0.90
2019-05-07T12:03:42.854Z,0.90
2019-05-07T12:04:42.266Z,0.90
2019-05-07T12:05:42.298Z,1.00
2019-05-07T12:06:41.865Z,0.90
2019-05-07T12:07:42.015Z,1.10
2019-05-07T12:08:48.204Z,1.00
2019-05-07T12:09:42.877Z,1.10
2019-05-07T12:10:41.845Z,1.30
2019-05-07T12:11:42.571Z,1.00
2019-05-07T12:12:41.797Z,0.90
2019-05-07T12:13:42.757Z,1.00
2019-05-07T12:14:41.775Z,1.10
2019-05-07T12:15:42.842Z,1.10
2019-05-07T12:16:42.545Z,1.40
2019-05-07T12:17:42.911Z,1.10
2019-05-07T12:18:43.114Z,1.20
2019-05-07T12:19:43.768Z,1.10
2019-05-07T12:20:41.714Z,1.00
2019-05-07T12:21:42.162Z,0.90
2019-05-07T12:22:42.415Z,0.80
2019-05-07T12:23:42.199Z,1.10
2019-05-07T12:24:41.930Z,1.00
2019-05-07T12:25:42.322Z,0.90
2019-05-07T12:26:41.823Z,1.40
2019-05-07T12:27:41.634Z,1.80
2019-05-07T12:28:41.939Z,1.30
2019-05-07T12:29:42.389Z,1.20
2019-05-07T12:30:42.811Z,1.10
2019-05-07T12:31:41.702Z,0.60
2019-05-07T12:32:42.741Z,1.50
2019-05-07T12:33:42.768Z,1.40
2019-05-07T12:34:42.317Z,1.10
2019-05-07T12:35:42.056Z,1.10
2019-05-07T12:36:41.552Z,1.50
2019-05-07T12:37:42.479Z,1.50
2019-05-07T12:38:41.758Z,1.00
2019-05-07T12:39:42.309Z,1.30
2019-05-07T12:40:41.994Z,1.40
2019-05-07T12:41:41.982Z,1.20
2019-05-07T12:42:42.431Z,1.20
2019-05-07T12:43:42.368Z,1.40
2019-05-07T12:44:42.527Z,1.80
2019-05-07T12:45:42.124Z,1.80
2019-05-07T12:46:42.335Z,1.50
2019-05-07T12:47:42.215Z,1.20
2019-05-07T12:48:41.410Z,1.10
2019-05-07T12:49:42.853Z,0.90
2019-05-07T12:50:43.212Z,0.80
2019-05-07T12:51:42.681Z,1.10
2019-05-07T12:52:42.477Z,1.00
2019-05-07T12:53:42.430Z,0.70
2019-05-07T12:54:42.048Z,0.90
2019-05-07T12:55:42.836Z,1.00
2019-05-07T12:56:42.633Z,1.10
2019-05-07T12:57:42.070Z,0.80
2019-05-07T12:58:41.288Z,0.80
2019-05-07T12:59:42.620Z,1.30
2019-05-07T13:00:42.552Z,0.90
2019-05-07T13:01:42.219Z,0.90
2019-05-07T13:02:44.224Z,1.00
2019-05-07T13:03:42.775Z,0.90
2019-05-07T13:04:41.771Z,1.00
2019-05-07T13:05:41.765Z,1.00
2019-05-07T13:06:41.204Z,1.00
2019-05-07T13:07:41.810Z,1.00
2019-05-07T13:08:41.956Z,1.00
2019-05-07T13:09:42.765Z,1.00
2019-05-07T13:10:42.863Z,1.20
2019-05-07T13:11:42.484Z,1.30
2019-05-07T13:12:41.993Z,1.10
2019-05-07T13:13:42.345Z,1.10
2019-05-07T13:14:41.166Z,1.20
2019-05-07T13:15:43.290Z,1.00
2019-05-07T13:16:41.090Z,1.10
2019-05-07T13:17:41.710Z,1.40
2019-05-07T13:18:42.276Z,1.20